createdAt,value
2017-05-24T00:00:19.878Z,0
2017-05-24T00:01:19.840Z,0
2017-05-24T00:02:20.120Z,0
2017-05-24T00:03:19.800Z,0
2017-05-24T00:04:19.504Z,0
2017-05-24T00:05:19.211Z,0
2017-05-24T00:06:20.229Z,0
2017-05-24T00:07:19.772Z,0
2017-05-24T00:08:20.028Z,0
2017-05-24T00:09:19.850Z,0
2017-05-24T00:10:19.392Z,0
2017-05-24T00:11:19.754Z,0
2017-05-24T00:12:19.342Z,0
2017-05-24T00:13:20.042Z,0
2017-05-24T00:14:19.310Z,0
2017-05-24T00:15:19.919Z,0
2017-05-24T00:16:19.582Z,0
2017-05-24T00:17:19.285Z,0
2017-05-24T00:18:19.927Z,0
2017-05-24T00:19:19.603Z,0
2017-05-24T00:20:19.840Z,0
2017-05-24T00:21:19.197Z,0
2017-05-24T00:22:19.792Z,0
2017-05-24T00:23:19.480Z,0
2017-05-24T00:24:19.475Z,0
2017-05-24T00:25:19.224Z,0
2017-05-24T00:26:19.423Z,0
2017-05-24T00:27:19.491Z,0
2017-05-24T00:28:19.400Z,0
2017-05-24T00:29:19.693Z,0
2017-05-24T00:30:19.359Z,0
2017-05-24T00:31:19.660Z,0
2017-05-24T00:32:19.621Z,0
2017-05-24T00:33:19.621Z,0
2017-05-24T00:34:19.604Z,0
2017-05-24T00:35:19.379Z,0
2017-05-24T00:36:19.323Z,0
2017-05-24T00:37:19.031Z,0
2017-05-24T00:38:19.282Z,0
2017-05-24T00:39:19.001Z,0
2017-05-24T00:40:19.622Z,0
2017-05-24T00:41:19.515Z,0
2017-05-24T00:42:19.470Z,0
2017-05-24T00:43:19.203Z,0
2017-05-24T00:44:19.437Z,0
2017-05-24T00:45:19.464Z,0
2017-05-24T00:46:19.081Z,0
2017-05-24T00:47:19.122Z,0
2017-05-24T00:48:19.372Z,0
2017-05-24T00:49:19.451Z,0
2017-05-24T00:50:19.327Z,0
2017-05-24T00:51:19.421Z,0
2017-05-24T00:52:19.275Z,0
2017-05-24T00:53:19.322Z,0
2017-05-24T00:54:18.972Z,0
2017-05-24T00:55:18.971Z,0
2017-05-24T00:56:18.613Z,0
2017-05-24T00:57:18.901Z,0
2017-05-24T00:58:18.590Z,0
2017-05-24T00:59:18.873Z,0
2017-05-24T01:00:19.210Z,0
2017-05-24T01:01:19.137Z,0
2017-05-24T01:02:19.191Z,0
2017-05-24T01:03:19.105Z,0
2017-05-24T01:04:18.238Z,0
2017-05-24T01:05:18.140Z,0
2017-05-24T01:06:18.530Z,0
2017-05-24T01:07:19.043Z,0
2017-05-24T01:08:18.490Z,0
2017-05-24T01:09:19.000Z,0
2017-05-24T01:10:18.380Z,0
2017-05-24T01:11:18.975Z,0
2017-05-24T01:12:18.342Z,0
2017-05-24T01:13:18.024Z,0
2017-05-24T01:14:18.921Z,0
2017-05-24T01:15:18.310Z,0
2017-05-24T01:16:18.951Z,0
2017-05-24T01:17:18.562Z,0
2017-05-24T01:18:18.541Z,0
2017-05-24T01:19:18.530Z,0
2017-05-24T01:20:18.201Z,0
2017-05-24T01:21:18.832Z,0
2017-05-24T01:22:18.182Z,0
2017-05-24T01:23:18.463Z,0
2017-05-24T01:24:18.132Z,0
2017-05-24T01:25:18.421Z,0
2017-05-24T01:26:18.401Z,0
2017-05-24T01:27:18.409Z,0
2017-05-24T01:28:18.139Z,0
2017-05-24T01:29:18.354Z,0
2017-05-24T01:30:18.036Z,0
2017-05-24T01:31:18.331Z,0
2017-05-24T01:32:18.605Z,0
2017-05-24T01:33:18.593Z,0
2017-05-24T01:34:18.580Z,0
2017-05-24T01:35:18.252Z,0
2017-05-24T01:36:17.942Z,0
2017-05-24T01:37:17.932Z,0
2017-05-24T01:38:18.211Z,0
2017-05-24T01:39:17.940Z,0
2017-05-24T01:40:18.172Z,0
2017-05-24T01:41:18.150Z,0
2017-05-24T01:42:18.140Z,0
2017-05-24T01:43:18.122Z,0
2017-05-24T01:44:18.122Z,0
2017-05-24T01:45:18.391Z,0
2017-05-24T01:46:18.068Z,0
2017-05-24T01:47:18.350Z,0
2017-05-24T01:48:18.352Z,0
2017-05-24T01:49:18.351Z,0
2017-05-24T01:50:18.083Z,0
2017-05-24T01:51:17.982Z,0
2017-05-24T01:52:18.272Z,0
2017-05-24T01:53:17.348Z,0
2017-05-24T01:54:18.271Z,0
2017-05-24T01:55:18.227Z,0
2017-05-24T01:56:18.210Z,0
2017-05-24T01:57:17.893Z,0
2017-05-24T01:58:17.862Z,0
2017-05-24T01:59:17.868Z,0
2017-05-24T02:00:17.525Z,0
2017-05-24T02:01:17.836Z,0
2017-05-24T02:02:17.491Z,0
2017-05-24T02:03:17.484Z,0
2017-05-24T02:04:18.097Z,0
2017-05-24T02:05:17.741Z,0
2017-05-24T02:06:18.057Z,0
2017-05-24T02:07:17.421Z,0
2017-05-24T02:08:18.001Z,0
2017-05-24T02:09:17.071Z,0
2017-05-24T02:10:18.041Z,0
2017-05-24T02:11:17.961Z,0
2017-05-24T02:12:17.614Z,0
2017-05-24T02:13:17.623Z,0
2017-05-24T02:14:17.597Z,0
2017-05-24T02:15:17.586Z,0
2017-05-24T02:16:17.561Z,0
2017-05-24T02:17:17.841Z,0
2017-05-24T02:18:17.222Z,0
2017-05-24T02:19:17.516Z,0
2017-05-24T02:20:17.204Z,0
2017-05-24T02:21:17.765Z,0
2017-05-24T02:22:17.182Z,0
2017-05-24T02:23:17.432Z,0
2017-05-24T02:24:17.435Z,0
2017-05-24T02:25:17.711Z,0
2017-05-24T02:26:17.191Z,0
2017-05-24T02:27:17.380Z,0
2017-05-24T02:28:17.342Z,0
2017-05-24T02:29:17.658Z,0
2017-05-24T02:30:17.632Z,0
2017-05-24T02:31:17.320Z,0
2017-05-24T02:32:17.300Z,0
2017-05-24T02:33:17.344Z,0
2017-05-24T02:34:17.249Z,0
2017-05-24T02:35:17.548Z,0
2017-05-24T02:36:16.670Z,0
2017-05-24T02:37:17.514Z,0
2017-05-24T02:38:17.173Z,0
2017-05-24T02:39:16.857Z,0
2017-05-24T02:40:17.143Z,0
2017-05-24T02:41:16.825Z,0
2017-05-24T02:42:17.092Z,0
2017-05-24T02:43:17.180Z,0
2017-05-24T02:44:17.082Z,0
2017-05-24T02:45:17.362Z,0
2017-05-24T02:46:17.063Z,0
2017-05-24T02:47:16.791Z,0
2017-05-24T02:48:17.012Z,0
2017-05-24T02:49:16.371Z,0
2017-05-24T02:50:17.301Z,0
2017-05-24T02:51:16.961Z,4
2017-05-24T02:52:16.373Z,4
2017-05-24T02:53:16.972Z,0
2017-05-24T02:54:16.909Z,0
2017-05-24T02:55:16.981Z,0
2017-05-24T02:56:16.872Z,4
2017-05-24T02:57:16.852Z,4
2017-05-24T02:58:17.151Z,0
2017-05-24T02:59:17.130Z,4
2017-05-24T03:00:16.797Z,4
2017-05-24T03:01:16.477Z,4
2017-05-24T03:02:17.070Z,4
2017-05-24T03:03:17.064Z,8
2017-05-24T03:04:17.044Z,4
2017-05-24T03:05:17.035Z,4
2017-05-24T03:06:16.795Z,8
2017-05-24T03:07:16.994Z,8
2017-05-24T03:08:16.965Z,12
2017-05-24T03:09:16.962Z,12
2017-05-24T03:10:16.712Z,12
2017-05-24T03:11:16.643Z,16
2017-05-24T03:12:16.633Z,16
2017-05-24T03:13:16.897Z,16
2017-05-24T03:14:16.871Z,24
2017-05-24T03:15:16.270Z,24
2017-05-24T03:16:16.531Z,28
2017-05-24T03:17:16.504Z,32
2017-05-24T03:18:16.539Z,36
2017-05-24T03:19:16.162Z,44
2017-05-24T03:20:16.764Z,48
2017-05-24T03:21:16.151Z,52
2017-05-24T03:22:16.429Z,56
2017-05-24T03:23:16.092Z,60
2017-05-24T03:24:16.710Z,60
2017-05-24T03:25:16.374Z,68
2017-05-24T03:26:16.352Z,72
2017-05-24T03:27:16.642Z,80
2017-05-24T03:28:16.382Z,88
2017-05-24T03:29:15.993Z,92
2017-05-24T03:30:16.596Z,100
2017-05-24T03:31:16.564Z,108
2017-05-24T03:32:15.963Z,120
2017-05-24T03:33:16.562Z,128
2017-05-24T03:34:16.213Z,148
2017-05-24T03:35:15.892Z,164
2017-05-24T03:36:16.489Z,180
2017-05-24T03:37:16.473Z,200
2017-05-24T03:38:16.143Z,220
2017-05-24T03:39:16.132Z,232
2017-05-24T03:40:16.140Z,248
2017-05-24T03:41:16.158Z,272
2017-05-24T03:42:16.416Z,292
2017-05-24T03:43:16.363Z,308
2017-05-24T03:44:16.043Z,316
2017-05-24T03:45:16.036Z,324
2017-05-24T03:46:16.005Z,336
2017-05-24T03:47:16.302Z,356
2017-05-24T03:48:16.299Z,372
2017-05-24T03:49:15.663Z,384
2017-05-24T03:50:15.372Z,412
2017-05-24T03:51:15.923Z,432
2017-05-24T03:52:16.312Z,468
2017-05-24T03:53:16.191Z,500
2017-05-24T03:54:16.195Z,540
2017-05-24T03:55:15.249Z,564
2017-05-24T03:56:15.624Z,580
2017-05-24T03:57:15.537Z,600
2017-05-24T03:58:15.610Z,620
2017-05-24T03:59:15.791Z,632
2017-05-24T04:00:15.784Z,656
2017-05-24T04:01:15.762Z,684
2017-05-24T04:02:16.185Z,712
2017-05-24T04:03:15.727Z,744
2017-05-24T04:04:15.739Z,760
2017-05-24T04:05:16.005Z,756
2017-05-24T04:06:15.742Z,760
2017-05-24T04:07:15.665Z,768
2017-05-24T04:08:15.732Z,788
2017-05-24T04:09:15.932Z,784
2017-05-24T04:10:15.903Z,800
2017-05-24T04:11:15.641Z,796
2017-05-24T04:12:15.583Z,804
2017-05-24T04:13:15.569Z,820
2017-05-24T04:14:15.862Z,840
2017-05-24T04:15:15.941Z,848
2017-05-24T04:16:15.535Z,840
2017-05-24T04:17:14.885Z,832
2017-05-24T04:18:15.501Z,832
2017-05-24T04:19:15.445Z,844
2017-05-24T04:20:15.824Z,848
2017-05-24T04:21:15.919Z,844
2017-05-24T04:22:15.445Z,812
2017-05-24T04:23:15.413Z,792
2017-05-24T04:24:15.094Z,772
2017-05-24T04:25:15.243Z,780
2017-05-24T04:26:15.769Z,788
2017-05-24T04:27:15.735Z,772
2017-05-24T04:28:15.365Z,812
2017-05-24T04:29:15.034Z,892
2017-05-24T04:30:15.037Z,968
2017-05-24T04:31:15.653Z,984
2017-05-24T04:32:15.544Z,1028
2017-05-24T04:33:15.015Z,1084
2017-05-24T04:34:15.529Z,1020
2017-05-24T04:35:15.304Z,940
2017-05-24T04:36:14.546Z,952
2017-05-24T04:37:15.206Z,968
2017-05-24T04:38:15.167Z,996
2017-05-24T04:39:14.504Z,1040
2017-05-24T04:40:15.192Z,1072
2017-05-24T04:41:15.066Z,1120
2017-05-24T04:42:14.795Z,1152
2017-05-24T04:43:15.403Z,1200
2017-05-24T04:44:15.082Z,1168
2017-05-24T04:45:15.058Z,1140
2017-05-24T04:46:14.996Z,1136
2017-05-24T04:47:15.316Z,1140
2017-05-24T04:48:14.663Z,1096
2017-05-24T04:49:14.954Z,1088
2017-05-24T04:50:14.313Z,1104
2017-05-24T04:51:15.073Z,1132
2017-05-24T04:52:14.885Z,1136
2017-05-24T04:53:14.655Z,1120
2017-05-24T04:54:14.555Z,1100
2017-05-24T04:55:14.876Z,1140
2017-05-24T04:56:15.165Z,1116
2017-05-24T04:57:15.136Z,1104
2017-05-24T04:58:14.812Z,1148
2017-05-24T04:59:15.156Z,1188
2017-05-24T05:00:14.129Z,1220
2017-05-24T05:01:14.743Z,1328
2017-05-24T05:02:14.425Z,1508
2017-05-24T05:03:14.396Z,1696
2017-05-24T05:04:14.685Z,1908
2017-05-24T05:05:14.376Z,1948
2017-05-24T05:06:14.369Z,2040
2017-05-24T05:07:14.625Z,2112
2017-05-24T05:08:14.325Z,2064
2017-05-24T05:09:14.302Z,2064
2017-05-24T05:10:14.590Z,2096
2017-05-24T05:11:14.594Z,2112
2017-05-24T05:12:14.562Z,2128
2017-05-24T05:13:14.851Z,2160
2017-05-24T05:14:14.537Z,2112
2017-05-24T05:15:14.502Z,2104
2017-05-24T05:16:14.504Z,2160
2017-05-24T05:17:14.783Z,2220
2017-05-24T05:18:14.824Z,2196
2017-05-24T05:19:14.742Z,2248
2017-05-24T05:20:14.738Z,2180
2017-05-24T05:21:14.094Z,2088
2017-05-24T05:22:14.694Z,2132
2017-05-24T05:23:14.711Z,2160
2017-05-24T05:24:14.664Z,2060
2017-05-24T05:25:14.705Z,2008
2017-05-24T05:26:14.319Z,2044
2017-05-24T05:27:14.322Z,2348
2017-05-24T05:28:14.614Z,2848
2017-05-24T05:29:13.970Z,3348
2017-05-24T05:30:14.574Z,3732
2017-05-24T05:31:14.247Z,3940
2017-05-24T05:32:14.523Z,4184
2017-05-24T05:33:14.586Z,4228
2017-05-24T05:34:14.198Z,4228
2017-05-24T05:35:14.536Z,4244
2017-05-24T05:36:14.175Z,4388
2017-05-24T05:37:14.524Z,3992
2017-05-24T05:38:14.440Z,3640
2017-05-24T05:39:14.439Z,3440
2017-05-24T05:40:14.444Z,3584
2017-05-24T05:41:14.098Z,3620
2017-05-24T05:42:14.064Z,3996
2017-05-24T05:43:13.770Z,4484
2017-05-24T05:44:14.366Z,4648
2017-05-24T05:45:14.026Z,4760
2017-05-24T05:46:14.061Z,4284
2017-05-24T05:47:13.993Z,4148
2017-05-24T05:48:14.298Z,4476
2017-05-24T05:49:14.329Z,4764
2017-05-24T05:50:13.988Z,5024
2017-05-24T05:51:14.232Z,5284
2017-05-24T05:52:13.598Z,5344
2017-05-24T05:53:14.231Z,5392
2017-05-24T05:54:14.191Z,5416
2017-05-24T05:55:13.856Z,5380
2017-05-24T05:56:13.862Z,5252
2017-05-24T05:57:13.538Z,5160
2017-05-24T05:58:14.123Z,5436
2017-05-24T05:59:14.128Z,5776
2017-05-24T06:00:13.830Z,6184
2017-05-24T06:01:14.087Z,6384
2017-05-24T06:02:13.522Z,6572
2017-05-24T06:03:14.062Z,6624
2017-05-24T06:04:14.044Z,6460
2017-05-24T06:05:13.771Z,5836
2017-05-24T06:06:13.373Z,5372
2017-05-24T06:07:13.379Z,5120
2017-05-24T06:08:13.676Z,4964
2017-05-24T06:09:13.732Z,5316
2017-05-24T06:10:13.351Z,5580
2017-05-24T06:11:13.701Z,5876
2017-05-24T06:12:13.613Z,6364
2017-05-24T06:13:13.605Z,6676
2017-05-24T06:14:13.284Z,6928
2017-05-24T06:15:13.554Z,6996
2017-05-24T06:16:13.602Z,7184
2017-05-24T06:17:13.533Z,7364
2017-05-24T06:18:13.601Z,7496
2017-05-24T06:19:13.502Z,7492
2017-05-24T06:20:13.814Z,7448
2017-05-24T06:21:13.502Z,7084
2017-05-24T06:22:13.482Z,7260
2017-05-24T06:23:13.761Z,7664
2017-05-24T06:24:13.142Z,7428
2017-05-24T06:25:13.471Z,6868
2017-05-24T06:26:13.733Z,6708
2017-05-24T06:27:13.719Z,6128
2017-05-24T06:28:13.053Z,5360
2017-05-24T06:29:13.061Z,5116
2017-05-24T06:30:13.361Z,4828
2017-05-24T06:31:13.654Z,4536
2017-05-24T06:32:13.622Z,4304
2017-05-24T06:33:13.319Z,4080
2017-05-24T06:34:13.300Z,3952
2017-05-24T06:35:13.453Z,3752
2017-05-24T06:36:13.271Z,3404
2017-05-24T06:37:13.351Z,3040
2017-05-24T06:38:13.033Z,2720
2017-05-24T06:39:13.614Z,2604
2017-05-24T06:40:12.892Z,2536
2017-05-24T06:41:12.890Z,2628
2017-05-24T06:42:12.868Z,2792
2017-05-24T06:43:13.166Z,2980
2017-05-24T06:44:12.892Z,3056
2017-05-24T06:45:13.120Z,2908
2017-05-24T06:46:12.813Z,2844
2017-05-24T06:47:12.496Z,2884
2017-05-24T06:48:13.463Z,2980
2017-05-24T06:49:12.762Z,3072
2017-05-24T06:50:13.369Z,2876
2017-05-24T06:51:13.134Z,2592
2017-05-24T06:52:13.123Z,2496
2017-05-24T06:53:13.022Z,2608
2017-05-24T06:54:12.710Z,2624
2017-05-24T06:55:13.332Z,2616
2017-05-24T06:56:13.391Z,2636
2017-05-24T06:57:12.953Z,2620
2017-05-24T06:58:13.293Z,2708
2017-05-24T06:59:13.351Z,2748
2017-05-24T07:00:13.306Z,2780
2017-05-24T07:01:12.585Z,3108
2017-05-24T07:02:13.233Z,3504
2017-05-24T07:03:12.861Z,3548
2017-05-24T07:04:13.231Z,3520
2017-05-24T07:05:12.516Z,3768
2017-05-24T07:06:12.811Z,4324
2017-05-24T07:07:12.619Z,4540
2017-05-24T07:08:12.801Z,4432
2017-05-24T07:09:13.212Z,4232
2017-05-24T07:10:13.159Z,3580
2017-05-24T07:11:13.091Z,3016
2017-05-24T07:12:12.400Z,2856
2017-05-24T07:13:12.770Z,3200
2017-05-24T07:14:12.702Z,4616
2017-05-24T07:15:12.671Z,4724
2017-05-24T07:16:12.959Z,4432
2017-05-24T07:17:12.041Z,4136
2017-05-24T07:18:12.973Z,4340
2017-05-24T07:19:12.334Z,4492
2017-05-24T07:20:12.611Z,4204
2017-05-24T07:21:12.890Z,3892
2017-05-24T07:22:12.602Z,3808
2017-05-24T07:23:12.256Z,3256
2017-05-24T07:24:12.232Z,3276
2017-05-24T07:25:12.542Z,3272
2017-05-24T07:26:12.204Z,3276
2017-05-24T07:27:12.501Z,3392
2017-05-24T07:28:12.772Z,3520
2017-05-24T07:29:12.470Z,3476
2017-05-24T07:30:12.139Z,3360
2017-05-24T07:31:12.452Z,3472
2017-05-24T07:32:12.139Z,3632
2017-05-24T07:33:12.105Z,3612
2017-05-24T07:34:12.378Z,3084
2017-05-24T07:35:12.386Z,2920
2017-05-24T07:36:12.375Z,3236
2017-05-24T07:37:12.650Z,3756
2017-05-24T07:38:12.661Z,3872
2017-05-24T07:39:12.316Z,4180
2017-05-24T07:40:12.296Z,5008
2017-05-24T07:41:12.277Z,5700
2017-05-24T07:42:11.998Z,5528
2017-05-24T07:43:12.271Z,5268
2017-05-24T07:44:12.549Z,5016
2017-05-24T07:45:12.230Z,6576
2017-05-24T07:46:12.213Z,8168
2017-05-24T07:47:12.193Z,8840
2017-05-24T07:48:12.184Z,9056
2017-05-24T07:49:12.170Z,8372
2017-05-24T07:50:12.186Z,8272
2017-05-24T07:51:12.460Z,8000
2017-05-24T07:52:12.147Z,8204
2017-05-24T07:53:12.412Z,8780
2017-05-24T07:54:12.392Z,10616
2017-05-24T07:55:12.097Z,12140
2017-05-24T07:56:12.084Z,13092
2017-05-24T07:57:12.069Z,11388
2017-05-24T07:58:11.813Z,11684
2017-05-24T07:59:12.348Z,12604
2017-05-24T08:00:12.108Z,14380
2017-05-24T08:01:12.303Z,9924
2017-05-24T08:02:12.021Z,7868
2017-05-24T08:03:11.975Z,9056
2017-05-24T08:04:11.984Z,10132
2017-05-24T08:05:11.961Z,10004
2017-05-24T08:06:11.954Z,9456
2017-05-24T08:07:11.624Z,7544
2017-05-24T08:08:11.673Z,6444
2017-05-24T08:09:12.208Z,5968
2017-05-24T08:10:11.883Z,5616
2017-05-24T08:11:12.191Z,5776
2017-05-24T08:12:12.174Z,6096
2017-05-24T08:13:12.173Z,6272
2017-05-24T08:14:12.213Z,5232
2017-05-24T08:15:12.111Z,4668
2017-05-24T08:16:11.803Z,4792
2017-05-24T08:17:12.110Z,7744
2017-05-24T08:18:12.107Z,11512
2017-05-24T08:19:11.760Z,9684
2017-05-24T08:20:12.169Z,7648
2017-05-24T08:21:11.728Z,8292
2017-05-24T08:22:11.849Z,11840
2017-05-24T08:23:11.800Z,14384
2017-05-24T08:24:12.015Z,12308
2017-05-24T08:25:11.692Z,9928
2017-05-24T08:26:12.076Z,10648
2017-05-24T08:27:11.425Z,10608
2017-05-24T08:28:11.667Z,13160
2017-05-24T08:29:11.986Z,10816
2017-05-24T08:30:11.693Z,7788
2017-05-24T08:31:11.620Z,7912
2017-05-24T08:32:11.904Z,9072
2017-05-24T08:33:11.685Z,8588
2017-05-24T08:34:11.562Z,10344
2017-05-24T08:35:11.973Z,12824
2017-05-24T08:36:10.984Z,12008
2017-05-24T08:37:11.622Z,9852
2017-05-24T08:38:11.557Z,9700
2017-05-24T08:39:11.607Z,8848
2017-05-24T08:40:11.863Z,8528
2017-05-24T08:41:11.900Z,8820
2017-05-24T08:42:11.815Z,8428
2017-05-24T08:43:11.479Z,7896
2017-05-24T08:44:11.507Z,7772
2017-05-24T08:45:11.479Z,7468
2017-05-24T08:46:11.727Z,6824
2017-05-24T08:47:11.801Z,6312
2017-05-24T08:48:11.710Z,5728
2017-05-24T08:49:11.697Z,5388
2017-05-24T08:50:11.673Z,5012
2017-05-24T08:51:11.352Z,4876
2017-05-24T08:52:11.680Z,4876
2017-05-24T08:53:11.634Z,5424
2017-05-24T08:54:11.619Z,6036
2017-05-24T08:55:11.319Z,6012
2017-05-24T08:56:11.025Z,5280
2017-05-24T08:57:11.027Z,5008
2017-05-24T08:58:11.002Z,4628
2017-05-24T08:59:11.247Z,4308
2017-05-24T09:00:11.552Z,4400
2017-05-24T09:01:10.640Z,4448
2017-05-24T09:02:10.911Z,4472
2017-05-24T09:03:11.500Z,4632
2017-05-24T09:04:11.173Z,5008
2017-05-24T09:05:11.170Z,5104
2017-05-24T09:06:11.479Z,5560
2017-05-24T09:07:11.158Z,5752
2017-05-24T09:08:10.915Z,8316
2017-05-24T09:09:11.129Z,7076
2017-05-24T09:10:11.120Z,6608
2017-05-24T09:11:11.103Z,7220
2017-05-24T09:12:11.383Z,8280
2017-05-24T09:13:11.380Z,10924
2017-05-24T09:14:11.364Z,14404
2017-05-24T09:15:11.352Z,9804
2017-05-24T09:16:11.330Z,10748
2017-05-24T09:17:10.690Z,11360
2017-05-24T09:18:11.036Z,28544
2017-05-24T09:19:11.067Z,18688
2017-05-24T09:20:11.293Z,23392
2017-05-24T09:21:10.988Z,14904
2017-05-24T09:22:10.690Z,29760
2017-05-24T09:23:10.941Z,14024
2017-05-24T09:24:11.255Z,17984
2017-05-24T09:25:10.973Z,38784
2017-05-24T09:26:10.882Z,29632
2017-05-24T09:27:10.930Z,32640
2017-05-24T09:28:11.185Z,26304
2017-05-24T09:29:10.881Z,19840
2017-05-24T09:30:11.172Z,15380
2017-05-24T09:31:10.873Z,32992
2017-05-24T09:32:10.839Z,21344
2017-05-24T09:33:10.513Z,28384
2017-05-24T09:34:11.140Z,17056
2017-05-24T09:35:11.110Z,15620
2017-05-24T09:36:11.098Z,18432
2017-05-24T09:37:10.777Z,21888
2017-05-24T09:38:11.093Z,34368
2017-05-24T09:39:10.808Z,12516
2017-05-24T09:40:10.432Z,11528
2017-05-24T09:41:10.442Z,9396
2017-05-24T09:42:11.047Z,8188
2017-05-24T09:43:11.049Z,7796
2017-05-24T09:44:11.053Z,7332
2017-05-24T09:45:11.009Z,6580
2017-05-24T09:46:10.695Z,7264
2017-05-24T09:47:11.041Z,5976
2017-05-24T09:48:10.980Z,5736
2017-05-24T09:49:10.855Z,6104
2017-05-24T09:50:10.652Z,6720
2017-05-24T09:51:10.643Z,8796
2017-05-24T09:52:10.937Z,8276
2017-05-24T09:53:10.640Z,10284
2017-05-24T09:54:10.622Z,10516
2017-05-24T09:55:10.361Z,8568
2017-05-24T09:56:10.572Z,7556
2017-05-24T09:57:10.877Z,6924
2017-05-24T09:58:10.572Z,7008
2017-05-24T09:59:10.541Z,7696
2017-05-24T10:00:10.536Z,9164
2017-05-24T10:01:10.210Z,8308
2017-05-24T10:02:10.511Z,9144
2017-05-24T10:03:10.193Z,13204
2017-05-24T10:04:10.781Z,21728
2017-05-24T10:05:10.480Z,21152
2017-05-24T10:06:10.161Z,17088
2017-05-24T10:07:10.751Z,14108
2017-05-24T10:08:10.444Z,13140
2017-05-24T10:09:10.442Z,12208
2017-05-24T10:10:10.110Z,10864
2017-05-24T10:11:10.706Z,11404
2017-05-24T10:12:10.082Z,14712
2017-05-24T10:13:10.387Z,12940
2017-05-24T10:14:10.386Z,11148
2017-05-24T10:15:10.371Z,9684
2017-05-24T10:16:10.643Z,9652
2017-05-24T10:17:10.033Z,9444
2017-05-24T10:18:10.034Z,9188
2017-05-24T10:19:10.313Z,8964
2017-05-24T10:20:10.056Z,10352
2017-05-24T10:21:10.291Z,10880
2017-05-24T10:22:10.292Z,10068
2017-05-24T10:23:10.280Z,9568
2017-05-24T10:24:09.991Z,9332
2017-05-24T10:25:10.556Z,8008
2017-05-24T10:26:10.556Z,7548
2017-05-24T10:27:10.550Z,8132
2017-05-24T10:28:09.961Z,10736
2017-05-24T10:29:10.205Z,11092
2017-05-24T10:30:10.200Z,11620
2017-05-24T10:31:10.191Z,11256
2017-05-24T10:32:10.579Z,10916
2017-05-24T10:33:09.872Z,11196
2017-05-24T10:34:10.163Z,11860
2017-05-24T10:35:10.130Z,11524
2017-05-24T10:36:10.471Z,11140
2017-05-24T10:37:10.452Z,11420
2017-05-24T10:38:10.431Z,11952
2017-05-24T10:39:10.111Z,12120
2017-05-24T10:40:10.444Z,12120
2017-05-24T10:41:10.394Z,11572
2017-05-24T10:42:09.851Z,11056
2017-05-24T10:43:10.360Z,11136
2017-05-24T10:44:10.412Z,12044
2017-05-24T10:45:10.044Z,11336
2017-05-24T10:46:10.043Z,10476
2017-05-24T10:47:09.723Z,9824
2017-05-24T10:48:09.756Z,10100
2017-05-24T10:49:10.014Z,11156
2017-05-24T10:50:10.282Z,10680
2017-05-24T10:51:09.743Z,10524
2017-05-24T10:52:09.964Z,10880
2017-05-24T10:53:09.980Z,11448
2017-05-24T10:54:09.970Z,11828
2017-05-24T10:55:10.252Z,11988
2017-05-24T10:56:09.916Z,12180
2017-05-24T10:57:09.917Z,11964
2017-05-24T10:58:09.922Z,11496
2017-05-24T10:59:09.699Z,10600
2017-05-24T11:00:09.881Z,10244
2017-05-24T11:01:09.873Z,10792
2017-05-24T11:02:09.875Z,11692
2017-05-24T11:03:09.874Z,11944
2017-05-24T11:04:10.148Z,12396
2017-05-24T11:05:09.841Z,13220
2017-05-24T11:06:09.832Z,12604
2017-05-24T11:07:09.892Z,13140
2017-05-24T11:08:10.117Z,12612
2017-05-24T11:09:09.916Z,12908
2017-05-24T11:10:09.860Z,13236
2017-05-24T11:11:09.877Z,12732
2017-05-24T11:12:09.771Z,11724
2017-05-24T11:13:09.776Z,11424
2017-05-24T11:14:09.809Z,11688
2017-05-24T11:15:09.741Z,11768
2017-05-24T11:16:10.055Z,12460
2017-05-24T11:17:10.071Z,13064
2017-05-24T11:18:09.772Z,13112
2017-05-24T11:19:09.713Z,12304
2017-05-24T11:20:09.989Z,11764
2017-05-24T11:21:09.980Z,12060
2017-05-24T11:22:09.359Z,11224
2017-05-24T11:23:09.682Z,11008
2017-05-24T11:24:09.800Z,11188
2017-05-24T11:25:09.701Z,11936
2017-05-24T11:26:09.929Z,11972
2017-05-24T11:27:09.743Z,12016
2017-05-24T11:28:09.961Z,11884
2017-05-24T11:29:09.742Z,11912
2017-05-24T11:30:09.950Z,12220
2017-05-24T11:31:09.899Z,11120
2017-05-24T11:32:09.633Z,10096
2017-05-24T11:33:09.574Z,9644
2017-05-24T11:34:09.932Z,9232
2017-05-24T11:35:09.931Z,8348
2017-05-24T11:36:09.955Z,7784
2017-05-24T11:37:09.221Z,7328
2017-05-24T11:38:09.561Z,7012
2017-05-24T11:39:09.823Z,7200
2017-05-24T11:40:09.191Z,7776
2017-05-24T11:41:09.824Z,8016
2017-05-24T11:42:09.920Z,7616
2017-05-24T11:43:09.469Z,8336
2017-05-24T11:44:09.775Z,9024
2017-05-24T11:45:09.131Z,8832
2017-05-24T11:46:09.853Z,8776
2017-05-24T11:47:09.742Z,8832
2017-05-24T11:48:09.491Z,8876
2017-05-24T11:49:09.734Z,9536
2017-05-24T11:50:09.743Z,10200
2017-05-24T11:51:09.692Z,11316
2017-05-24T11:52:09.693Z,11024
2017-05-24T11:53:09.052Z,11388
2017-05-24T11:54:09.351Z,12172
2017-05-24T11:55:09.669Z,10740
2017-05-24T11:56:09.330Z,10768
2017-05-24T11:57:09.121Z,10524
2017-05-24T11:58:09.302Z,11492
2017-05-24T11:59:09.296Z,10892
2017-05-24T12:00:09.608Z,11128
2017-05-24T12:01:09.603Z,11928
2017-05-24T12:02:08.682Z,10048
2017-05-24T12:03:09.592Z,9160
2017-05-24T12:04:09.251Z,8548
2017-05-24T12:05:09.556Z,7748
2017-05-24T12:06:09.237Z,7228
2017-05-24T12:07:08.917Z,6664
2017-05-24T12:08:09.294Z,6692
2017-05-24T12:09:09.311Z,6728
2017-05-24T12:10:09.181Z,6576
2017-05-24T12:11:09.500Z,6740
2017-05-24T12:12:09.489Z,6828
2017-05-24T12:13:08.854Z,7392
2017-05-24T12:14:09.190Z,7660
2017-05-24T12:15:09.140Z,8064
2017-05-24T12:16:08.830Z,8868
2017-05-24T12:17:08.929Z,11064
2017-05-24T12:18:08.817Z,10448
2017-05-24T12:19:09.421Z,11640
2017-05-24T12:20:09.424Z,11328
2017-05-24T12:21:09.463Z,9740
2017-05-24T12:22:09.498Z,9528
2017-05-24T12:23:09.059Z,9828
2017-05-24T12:24:09.059Z,9320
2017-05-24T12:25:09.040Z,9512
2017-05-24T12:26:09.050Z,10024
2017-05-24T12:27:09.099Z,9328
2017-05-24T12:28:09.019Z,10336
2017-05-24T12:29:09.011Z,12172
2017-05-24T12:30:08.991Z,10480
2017-05-24T12:31:09.360Z,10688
2017-05-24T12:32:08.664Z,9332
2017-05-24T12:33:09.279Z,8068
2017-05-24T12:34:09.001Z,8168
2017-05-24T12:35:09.244Z,7876
2017-05-24T12:36:08.930Z,7616
2017-05-24T12:37:08.633Z,8496
2017-05-24T12:38:08.903Z,9144
2017-05-24T12:39:08.607Z,10552
2017-05-24T12:40:08.900Z,10908
2017-05-24T12:41:08.889Z,9332
2017-05-24T12:42:08.877Z,9216
2017-05-24T12:43:08.890Z,8292
2017-05-24T12:44:09.173Z,6816
2017-05-24T12:45:09.180Z,4976
2017-05-24T12:46:09.170Z,4696
2017-05-24T12:47:08.520Z,5168
2017-05-24T12:48:08.823Z,4884
2017-05-24T12:49:08.809Z,4600
2017-05-24T12:50:08.196Z,4292
2017-05-24T12:51:08.836Z,4112
2017-05-24T12:52:08.780Z,3916
2017-05-24T12:53:08.460Z,3768
2017-05-24T12:54:08.771Z,3432
2017-05-24T12:55:08.850Z,3236
2017-05-24T12:56:08.442Z,3276
2017-05-24T12:57:08.745Z,3728
2017-05-24T12:58:09.033Z,4272
2017-05-24T12:59:09.019Z,4488
2017-05-24T13:00:08.729Z,4256
2017-05-24T13:01:09.009Z,4088
2017-05-24T13:02:08.671Z,4176
2017-05-24T13:03:08.379Z,4448
2017-05-24T13:04:08.658Z,4504
2017-05-24T13:05:08.662Z,4500
2017-05-24T13:06:08.646Z,3916
2017-05-24T13:07:08.963Z,3800
2017-05-24T13:08:08.621Z,3608
2017-05-24T13:09:08.939Z,3104
2017-05-24T13:10:08.307Z,2768
2017-05-24T13:11:08.279Z,2596
2017-05-24T13:12:08.575Z,2388
2017-05-24T13:13:08.260Z,2240
2017-05-24T13:14:08.549Z,2068
2017-05-24T13:15:08.574Z,1988
2017-05-24T13:16:08.229Z,2036
2017-05-24T13:17:08.612Z,2064
2017-05-24T13:18:08.198Z,2204
2017-05-24T13:19:08.588Z,2164
2017-05-24T13:20:08.789Z,2036
2017-05-24T13:21:08.536Z,2032
2017-05-24T13:22:08.463Z,1996
2017-05-24T13:23:08.574Z,1880
2017-05-24T13:24:08.441Z,1784
2017-05-24T13:25:08.531Z,1688
2017-05-24T13:26:08.771Z,1560
2017-05-24T13:27:08.487Z,1556
2017-05-24T13:28:08.396Z,1592
2017-05-24T13:29:08.748Z,1612
2017-05-24T13:30:08.800Z,1620
2017-05-24T13:31:08.480Z,1596
2017-05-24T13:32:08.368Z,1496
2017-05-24T13:33:08.658Z,1344
2017-05-24T13:34:08.336Z,1244
2017-05-24T13:35:08.328Z,1176